Time;durP1;ratioP1;P1;durP2;ratioP2;P2;SDS_P1;SDS_P2;PMS_P1;PMS_P2;Temp;Humidity;BMP_temperature;BMP_pressure;BME280_temperature;BME280_humidity;BME280_pressure;Samples;Min_cycle;Max_cycle;Signal;HPM_P1;HPM_P2
2023/07/24 00:02:00;;;;;;;14.43;8.90;;;19.80;86.10;;;;;;5123757;27;20031;-81
2023/07/24 00:04:26;;;;;;;14.45;9.23;;;19.70;86.60;;;;;;5142920;27;20027;-81
2023/07/24 00:06:51;;;;;;;14.75;8.30;;;19.60;87.10;;;;;;5142391;27;20110;-82
2023/07/24 00:09:17;;;;;;;14.20;8.40;;;19.50;87.30;;;;;;5143029;27;20023;-82
2023/07/24 00:11:43;;;;;;;17.73;9.15;;;19.40;87.60;;;;;;5143403;27;20063;-82
2023/07/24 00:14:08;;;;;;;14.25;8.75;;;19.30;87.70;;;;;;5141987;27;20053;-81
2023/07/24 00:16:34;;;;;;;14.73;8.90;;;19.30;87.50;;;;;;5140582;27;20033;-81
2023/07/24 00:18:59;;;;;;;16.48;9.25;;;19.40;87.20;;;;;;5137068;27;20114;-81
2023/07/24 00:21:25;;;;;;;14.30;8.82;;;19.50;87.30;;;;;;5137996;27;20072;-80
2023/07/24 00:23:51;;;;;;;15.75;9.52;;;19.40;87.10;;;;;;5137785;27;20102;-81
2023/07/24 00:26:17;;;;;;;14.80;9.13;;;19.40;87.60;;;;;;5124968;27;20087;-82
2023/07/24 00:28:42;;;;;;;14.50;8.35;;;19.20;88.50;;;;;;5141584;27;20031;-82
2023/07/24 00:31:09;;;;;;;15.18;8.63;;;19.10;89.00;;;;;;5141674;27;20055;-81
2023/07/24 00:33:37;;;;;;;15.98;8.90;;;19.00;88.90;;;;;;5136648;27;20471;-82
2023/07/24 00:36:03;;;;;;;15.48;9.23;;;18.90;88.90;;;;;;5141499;27;20027;-82
2023/07/24 00:38:28;;;;;;;15.35;9.00;;;18.70;89.70;;;;;;5143326;27;20323;-82
2023/07/24 00:40:54;;;;;;;15.07;9.32;;;18.60;90.40;;;;;;5124862;27;20110;-81
2023/07/24 00:43:20;;;;;;;15.95;9.20;;;18.40;90.70;;;;;;5143152;27;20027;-82
2023/07/24 00:45:47;;;;;;;16.70;9.98;;;18.40;89.80;;;;;;5143256;27;20034;-82
2023/07/24 00:48:13;;;;;;;12.82;8.13;;;18.50;90.10;;;;;;5139783;27;20047;-81
2023/07/24 00:50:40;;;;;;;13.77;8.43;;;18.40;90.40;;;;;;5136603;27;20016;-82
2023/07/24 00:53:05;;;;;;;13.98;8.45;;;18.30;91.10;;;;;;5128795;27;20026;-82
2023/07/24 00:55:31;;;;;;;15.23;9.40;;;18.30;91.60;;;;;;5134034;27;20308;-82
2023/07/24 00:58:00;;;;;;;14.60;8.80;;;18.00;91.90;;;;;;5138476;27;20027;-81
2023/07/24 01:00:26;;;;;;;15.50;9.43;;;17.90;92.30;;;;;;5124639;27;20015;-81
2023/07/24 01:02:53;;;;;;;14.75;9.35;;;17.70;92.80;;;;;;5134720;27;20020;-80
2023/07/24 01:05:19;;;;;;;15.15;9.57;;;17.60;93.10;;;;;;5134472;27;20354;-80
2023/07/24 01:07:45;;;;;;;15.20;9.00;;;17.60;92.90;;;;;;5107409;28;20027;-80
2023/07/24 01:10:11;;;;;;;14.25;9.02;;;17.50;93.30;;;;;;5128673;27;20083;-81
2023/07/24 01:12:51;;;;;;;14.38;9.50;;;17.60;93.50;;;;;;5137052;27;20054;-82
2023/07/24 01:15:24;;;;;;;16.63;9.05;;;17.60;93.30;;;;;;5134203;27;20371;-81
2023/07/24 01:17:57;;;;;;;14.30;9.48;;;17.40;93.70;;;;;;5137668;27;20030;-81
2023/07/24 01:20:26;;;;;;;18.17;10.70;;;17.30;94.10;;;;;;5106710;27;20030;-81
2023/07/24 01:23:25;;;;;;;14.27;8.55;;;17.20;94.50;;;;;;5115003;28;20019;-82
2023/07/24 01:25:59;;;;;;;14.73;9.27;;;17.10;94.40;;;;;;5117199;27;20031;-81
2023/07/24 01:28:25;;;;;;;;;;;17.10;94.30;;;;;;5121605;27;20031;-82
2023/07/24 01:30:51;;;;;;;17.58;9.27;;;17.00;94.80;;;;;;5136813;27;19998;-81
2023/07/24 01:33:18;;;;;;;15.25;9.10;;;16.90;95.10;;;;;;5138403;27;20308;-81
2023/07/24 01:35:44;;;;;;;17.52;8.75;;;17.00;94.70;;;;;;5137008;27;20031;-81
2023/07/24 01:38:14;;;;;;;16.45;9.45;;;17.10;94.70;;;;;;5124917;27;20365;-81
2023/07/24 01:40:40;;;;;;;14.15;9.05;;;17.20;94.70;;;;;;5137824;27;20027;-81
2023/07/24 01:43:06;;;;;;;17.92;9.35;;;17.30;94.50;;;;;;5131650;27;20031;-82
2023/07/24 01:45:31;;;;;;;16.40;9.55;;;17.40;94.20;;;;;;5136348;27;20037;-81
2023/07/24 01:47:58;;;;;;;16.80;9.52;;;17.40;94.20;;;;;;5138122;27;20035;-81
2023/07/24 01:50:23;;;;;;;14.85;9.57;;;17.30;94.40;;;;;;5119315;27;20403;-81
2023/07/24 01:52:49;;;;;;;16.15;8.88;;;17.40;94.50;;;;;;5138994;27;20034;-81
2023/07/24 01:55:14;;;;;;;18.20;9.57;;;17.30;94.40;;;;;;5120621;27;20426;-80
2023/07/24 01:57:40;;;;;;;13.95;8.93;;;17.20;94.50;;;;;;5120153;27;20066;-81
2023/07/24 02:00:06;;;;;;;15.20;9.00;;;17.10;94.60;;;;;;5138103;27;20023;-80
2023/07/24 02:02:31;;;;;;;16.83;9.95;;;17.00;94.60;;;;;;5137674;27;20023;-82
2023/07/24 02:04:57;;;;;;;15.07;9.57;;;16.90;94.90;;;;;;5137569;27;20029;-82
2023/07/24 02:07:23;;;;;;;17.58;9.07;;;16.90;94.70;;;;;;5138545;27;20019;-81
2023/07/24 02:09:48;;;;;;;19.95;9.65;;;17.00;94.30;;;;;;5138436;27;20023;-81
2023/07/24 02:12:14;;;;;;;15.00;9.10;;;17.00;94.10;;;;;;5120198;27;20423;-80
2023/07/24 02:14:39;;;;;;;16.35;9.48;;;17.10;93.90;;;;;;5136036;27;20031;-81
2023/07/24 02:17:05;;;;;;;15.50;8.93;;;17.10;93.80;;;;;;5137848;27;20059;-81
2023/07/24 02:19:30;;;;;;;18.20;10.07;;;17.10;93.70;;;;;;5138106;27;20065;-82
2023/07/24 02:21:56;;;;;;;16.23;10.07;;;17.00;93.90;;;;;;5136510;27;20052;-81
2023/07/24 02:24:21;;;;;;;17.02;10.07;;;16.80;94.20;;;;;;5136951;27;20484;-81
2023/07/24 02:26:47;;;;;;;17.83;10.27;;;16.80;94.60;;;;;;5132910;27;20041;-81
2023/07/24 02:29:13;;;;;;;16.58;10.15;;;16.80;94.60;;;;;;5130956;27;20030;-81
2023/07/24 02:31:38;;;;;;;15.13;9.80;;;16.80;94.40;;;;;;5136945;27;20087;-81
2023/07/24 02:34:04;;;;;;;15.75;9.70;;;16.90;94.40;;;;;;5137936;27;20331;-81
2023/07/24 02:36:29;;;;;;;16.20;10.02;;;16.90;94.40;;;;;;5136377;27;20104;-82
2023/07/24 02:38:55;;;;;;;16.60;10.23;;;16.80;94.40;;;;;;5114409;28;20029;-81
2023/07/24 02:41:20;;;;;;;16.08;9.25;;;16.70;94.80;;;;;;5117593;28;20020;-81
2023/07/24 02:43:46;;;;;;;16.80;9.98;;;16.70;94.70;;;;;;5128624;27;20412;-81
2023/07/24 02:46:12;;;;;;;15.15;9.60;;;16.70;94.80;;;;;;5136964;27;20424;-81
2023/07/24 02:48:37;;;;;;;16.38;10.20;;;16.70;94.90;;;;;;5137478;27;20067;-82
2023/07/24 02:51:03;;;;;;;16.55;9.65;;;16.70;95.10;;;;;;5136461;27;20030;-81
2023/07/24 02:53:28;;;;;;;16.98;9.45;;;16.70;94.80;;;;;;5137593;27;20412;-81
2023/07/24 02:55:54;;;;;;;16.63;9.65;;;16.80;94.40;;;;;;5137197;27;20019;-81
2023/07/24 02:58:19;;;;;;;18.30;9.35;;;16.90;94.20;;;;;;5135265;27;20031;-81
2023/07/24 03:00:45;;;;;;;16.05;9.65;;;17.00;94.10;;;;;;5135601;27;20023;-81
2023/07/24 03:03:11;;;;;;;17.52;9.45;;;17.00;93.90;;;;;;5133830;27;20071;-80
2023/07/24 03:05:36;;;;;;;16.42;10.13;;;17.00;93.90;;;;;;5136054;27;20015;-81
2023/07/24 03:08:02;;;;;;;16.10;9.68;;;17.10;93.90;;;;;;5137245;27;20032;-81
2023/07/24 03:10:27;;;;;;;15.73;9.30;;;17.10;93.80;;;;;;5131163;27;20090;-81
2023/07/24 03:12:53;;;;;;;16.05;9.68;;;17.10;93.70;;;;;;5129627;27;20305;-81
2023/07/24 03:15:19;;;;;;;15.65;10.02;;;17.20;93.50;;;;;;5136959;27;20331;-81
2023/07/24 03:17:45;;;;;;;15.05;9.75;;;17.20;93.60;;;;;;5135565;27;20071;-81
2023/07/24 03:20:16;;;;;;;15.95;9.68;;;17.30;93.40;;;;;;5135075;27;20423;-81
2023/07/24 03:22:42;;;;;;;17.83;10.25;;;17.30;93.40;;;;;;5136574;27;20027;-81
2023/07/24 03:25:08;;;;;;;17.83;10.00;;;17.40;92.90;;;;;;5132252;27;20028;-81
2023/07/24 03:27:34;;;;;;;16.60;10.07;;;17.50;92.60;;;;;;5136350;27;20046;-81
2023/07/24 03:30:00;;;;;;;18.50;10.27;;;17.60;92.60;;;;;;5135232;27;20041;-81
2023/07/24 03:32:25;;;;;;;16.85;10.18;;;17.70;92.40;;;;;;5133401;27;20023;-81
2023/07/24 03:34:51;;;;;;;18.90;10.73;;;17.70;92.40;;;;;;5134179;27;20404;-82
2023/07/24 03:37:17;;;;;;;15.77;9.90;;;17.80;92.10;;;;;;5135558;27;20027;-81
2023/07/24 03:39:42;;;;;;;15.77;9.98;;;18.00;91.70;;;;;;5126769;27;20050;-81
2023/07/24 03:42:12;;;;;;;16.13;9.88;;;18.10;91.10;;;;;;5125956;27;20045;-82
2023/07/24 03:44:40;;;;;;;16.35;10.25;;;18.40;90.50;;;;;;5134583;27;20023;-82
2023/07/24 03:47:07;;;;;;;18.73;10.27;;;18.60;89.70;;;;;;5131902;27;20366;-81
2023/07/24 03:49:32;;;;;;;17.63;10.23;;;18.60;89.70;;;;;;5134186;28;20354;-81
2023/07/24 03:51:58;;;;;;;15.48;9.07;;;18.70;89.50;;;;;;5132363;27;20110;-81
2023/07/24 03:54:23;;;;;;;17.27;10.07;;;18.80;89.10;;;;;;5129167;28;20099;-80
2023/07/24 03:56:49;;;;;;;16.25;9.43;;;18.80;89.40;;;;;;5127949;27;20039;-80
2023/07/24 03:59:14;;;;;;;16.50;9.63;;;18.80;89.70;;;;;;5121546;28;20028;-80
2023/07/24 04:01:40;;;;;;;15.25;9.55;;;18.70;90.10;;;;;;5116810;28;20349;-80
2023/07/24 04:04:06;;;;;;;18.30;10.23;;;18.60;90.50;;;;;;5106744;28;20369;-80
2023/07/24 04:06:31;;;;;;;17.35;10.38;;;18.60;90.60;;;;;;5115547;28;20031;-81
2023/07/24 04:08:57;;;;;;;15.48;9.48;;;18.50;91.00;;;;;;5119308;28;20308;-81
2023/07/24 04:11:22;;;;;;;15.48;9.52;;;18.50;91.10;;;;;;5135071;27;20050;-80
2023/07/24 04:13:48;;;;;;;15.00;9.48;;;18.60;91.10;;;;;;5131555;28;20051;-81
2023/07/24 04:16:13;;;;;;;17.67;9.95;;;18.70;90.60;;;;;;5124630;28;20034;-81
2023/07/24 04:18:39;;;;;;;16.17;9.65;;;18.90;90.20;;;;;;5126427;28;20035;-82
2023/07/24 04:21:04;;;;;;;14.70;9.32;;;18.90;90.20;;;;;;5130189;28;20080;-81
2023/07/24 04:23:30;;;;;;;16.60;9.40;;;18.90;90.60;;;;;;5134367;28;20106;-82
2023/07/24 04:25:55;;;;;;;16.48;9.98;;;18.80;90.60;;;;;;5129215;28;20031;-81
2023/07/24 04:28:21;;;;;;;18.90;10.25;;;18.80;91.10;;;;;;5133567;27;20155;-81
2023/07/24 04:30:46;;;;;;;16.10;10.32;;;18.90;90.80;;;;;;5129566;27;20035;-81
2023/07/24 04:33:12;;;;;;;15.57;9.68;;;18.80;91.00;;;;;;5120863;28;20416;-81
2023/07/24 04:35:37;;;;;;;14.73;9.32;;;18.70;91.60;;;;;;5114725;28;20042;-81
2023/07/24 04:38:03;;;;;;;14.48;9.18;;;18.70;91.70;;;;;;5130429;27;20041;-81
2023/07/24 04:40:28;;;;;;;17.98;9.70;;;18.70;91.60;;;;;;5139486;27;20059;-81
2023/07/24 04:42:54;;;;;;;17.85;10.02;;;18.60;92.00;;;;;;5118672;27;20315;-81
2023/07/24 04:45:20;;;;;;;16.02;9.93;;;18.60;92.40;;;;;;5120680;27;20110;-81
2023/07/24 04:47:46;;;;;;;16.50;9.93;;;18.60;92.70;;;;;;5138431;27;20095;-81
2023/07/24 04:50:11;;;;;;;18.40;9.38;;;18.80;92.50;;;;;;5137263;27;20031;-81
2023/07/24 04:52:37;;;;;;;15.07;9.27;;;18.90;92.50;;;;;;5136220;27;20027;-81
2023/07/24 04:55:03;;;;;;;14.80;8.98;;;19.00;92.00;;;;;;5131348;27;20019;-81
2023/07/24 04:57:28;;;;;;;15.43;9.40;;;19.00;92.00;;;;;;5137035;27;20028;-81
2023/07/24 04:59:54;;;;;;;17.02;9.80;;;18.90;92.20;;;;;;5138578;27;20084;-81
2023/07/24 05:02:19;;;;;;;14.23;8.98;;;19.00;91.50;;;;;;5136084;27;20110;-82
2023/07/24 05:04:45;;;;;;;15.32;9.15;;;19.30;90.80;;;;;;5125601;27;20033;-81
2023/07/24 05:07:10;;;;;;;14.13;8.90;;;19.60;90.40;;;;;;5135064;27;20034;-81
2023/07/24 05:09:36;;;;;;;14.52;9.25;;;19.90;90.30;;;;;;5130100;27;20088;-81
2023/07/24 05:12:01;;;;;;;15.65;8.93;;;20.10;89.70;;;;;;5120822;27;20023;-81
2023/07/24 05:14:27;;;;;;;16.55;9.25;;;20.30;89.70;;;;;;5133402;27;20063;-81
2023/07/24 05:16:52;;;;;;;13.40;8.07;;;20.60;89.10;;;;;;5135267;27;20019;-80
2023/07/24 05:19:18;;;;;;;15.20;8.27;;;20.70;88.90;;;;;;5138091;27;20105;-81
2023/07/24 05:21:43;;;;;;;19.02;10.07;;;20.80;89.40;;;;;;5137194;27;20023;-81
2023/07/24 05:24:09;;;;;;;23.65;15.13;;;20.90;88.80;;;;;;5138051;27;20071;-81
2023/07/24 05:26:35;;;;;;;23.80;13.52;;;20.80;88.10;;;;;;5137883;27;20069;-81
2023/07/24 05:29:00;;;;;;;27.38;12.48;;;20.80;88.30;;;;;;5136593;27;20323;-81
2023/07/24 05:31:26;;;;;;;21.98;12.13;;;20.80;89.00;;;;;;5138774;27;20027;-80
2023/07/24 05:33:51;;;;;;;24.73;14.07;;;20.50;88.90;;;;;;5128420;27;20027;-81
2023/07/24 05:36:17;;;;;;;23.30;14.48;;;20.30;89.60;;;;;;5131250;27;20027;-81
2023/07/24 05:38:42;;;;;;;23.40;12.43;;;20.00;90.20;;;;;;5136891;27;20027;-81
2023/07/24 05:41:08;;;;;;;21.50;11.82;;;19.90;90.80;;;;;;5135827;27;20019;-81
2023/07/24 05:43:33;;;;;;;20.35;12.13;;;19.80;91.50;;;;;;5128256;27;20031;-81
2023/07/24 05:45:59;;;;;;;21.30;11.15;;;19.70;92.00;;;;;;5133759;27;20024;-81
2023/07/24 05:48:25;;;;;;;22.90;11.90;;;19.50;91.90;;;;;;5133748;27;20111;-80
2023/07/24 05:50:51;;;;;;;21.27;11.82;;;19.40;92.30;;;;;;5131299;27;20110;-81
2023/07/24 05:53:17;;;;;;;17.92;10.43;;;19.30;92.70;;;;;;5130741;27;20424;-81
2023/07/24 05:55:43;;;;;;;17.55;10.13;;;19.20;93.20;;;;;;5114677;27;20486;-80
2023/07/24 05:58:09;;;;;;;16.42;9.85;;;19.10;93.10;;;;;;5117564;27;20035;-81
2023/07/24 06:00:36;;;;;;;17.23;10.25;;;19.00;93.80;;;;;;5110750;28;20107;-81
2023/07/24 06:03:02;;;;;;;16.17;9.48;;;19.10;93.70;;;;;;5125605;27;20043;-81
2023/07/24 06:05:27;;;;;;;17.73;9.20;;;19.30;92.90;;;;;;5104259;28;20020;-81
2023/07/24 06:07:53;;;;;;;14.45;9.10;;;19.60;91.90;;;;;;5122100;27;20404;-81
2023/07/24 06:10:19;;;;;;;14.65;8.90;;;19.90;91.20;;;;;;5138477;27;20038;-81
2023/07/24 06:12:44;;;;;;;14.13;8.68;;;20.20;90.80;;;;;;5137982;27;20434;-81
2023/07/24 06:15:10;;;;;;;15.13;8.80;;;20.50;89.40;;;;;;5137233;27;20140;-81
2023/07/24 06:17:36;;;;;;;16.13;8.88;;;20.70;89.40;;;;;;5123571;27;20034;-80
2023/07/24 06:20:01;;;;;;;15.48;8.32;;;20.90;89.30;;;;;;5129240;27;20023;-81
2023/07/24 06:22:27;;;;;;;16.20;8.63;;;20.90;89.50;;;;;;5138428;27;20035;-81
2023/07/24 06:24:52;;;;;;;15.85;8.95;;;20.90;89.60;;;;;;5138007;27;20316;-81
2023/07/24 06:27:18;;;;;;;15.32;8.27;;;21.10;89.00;;;;;;5127145;27;20057;-81
2023/07/24 06:29:43;;;;;;;13.35;8.55;;;21.30;88.90;;;;;;5118150;27;20469;-80
2023/07/24 06:32:09;;;;;;;13.90;8.63;;;21.50;88.30;;;;;;5118417;27;20438;-81
2023/07/24 06:34:34;;;;;;;13.10;8.82;;;21.60;88.30;;;;;;5107773;27;20023;-81
2023/07/24 06:37:00;;;;;;;17.85;9.60;;;21.70;88.30;;;;;;5136059;27;20031;-81
2023/07/24 06:39:26;;;;;;;15.07;9.23;;;21.70;87.60;;;;;;5137491;27;20058;-81
2023/07/24 06:41:52;;;;;;;12.27;8.48;;;21.80;87.50;;;;;;5137483;27;20024;-81
2023/07/24 06:44:18;;;;;;;14.45;7.68;;;21.90;87.50;;;;;;5137712;27;20050;-80
2023/07/24 06:46:43;;;;;;;13.13;7.40;;;22.10;85.70;;;;;;5120547;27;20058;-81
2023/07/24 06:49:11;;;;;;;12.95;7.43;;;22.30;85.30;;;;;;5124719;27;20451;-80
2023/07/24 06:51:38;;;;;;;13.30;7.68;;;22.40;83.70;;;;;;5129917;27;20047;-80
2023/07/24 06:54:04;;;;;;;12.30;7.65;;;22.60;83.30;;;;;;5137730;27;20035;-78
2023/07/24 06:56:30;;;;;;;14.00;7.60;;;22.80;81.90;;;;;;5132840;27;20031;-79
2023/07/24 06:58:55;;;;;;;11.80;7.32;;;22.90;80.70;;;;;;5134558;27;20019;-79
2023/07/24 07:01:21;;;;;;;11.05;6.65;;;23.00;79.40;;;;;;5129614;27;20023;-81
2023/07/24 07:03:46;;;;;;;15.20;6.88;;;22.90;80.00;;;;;;5137235;27;20141;-81
2023/07/24 07:06:12;;;;;;;13.18;7.00;;;23.00;80.10;;;;;;5123608;27;20024;-81
2023/07/24 07:08:38;;;;;;;13.30;7.13;;;23.20;81.00;;;;;;5129332;27;20027;-80
2023/07/24 07:11:03;;;;;;;11.77;6.70;;;23.40;80.00;;;;;;5136158;27;20102;-81
2023/07/24 07:13:29;;;;;;;12.88;7.40;;;23.20;80.20;;;;;;5135005;27;20023;-80
2023/07/24 07:15:54;;;;;;;12.38;6.93;;;23.00;80.50;;;;;;5111595;28;20027;-81
2023/07/24 07:18:20;;;;;;;14.35;7.45;;;23.00;81.60;;;;;;5135008;27;20031;-80
2023/07/24 07:20:47;;;;;;;11.38;6.72;;;23.00;79.90;;;;;;5135378;27;20026;-81
2023/07/24 07:23:13;;;;;;;10.93;6.25;;;23.00;79.60;;;;;;5129891;27;20038;-79
2023/07/24 07:25:38;;;;;;;11.80;5.90;;;23.30;78.20;;;;;;5136210;27;20019;-79
2023/07/24 07:28:04;;;;;;;9.80;5.82;;;23.40;76.80;;;;;;5135951;27;20108;-80
2023/07/24 07:30:29;;;;;;;8.82;5.00;;;23.40;76.00;;;;;;5132880;27;20042;-79
2023/07/24 07:32:55;;;;;;;9.90;6.05;;;23.50;75.30;;;;;;5130322;27;20423;-79
2023/07/24 07:35:20;;;;;;;11.70;4.97;;;23.70;74.50;;;;;;5134559;27;20474;-79
2023/07/24 07:37:46;;;;;;;9.57;5.40;;;24.20;73.50;;;;;;5117441;27;20127;-80
2023/07/24 07:40:11;;;;;;;9.10;5.43;;;24.60;72.60;;;;;;5109434;28;20320;-80
2023/07/24 07:42:37;;;;;;;8.98;5.45;;;24.80;72.50;;;;;;5116648;28;20304;-80
2023/07/24 07:45:03;;;;;;;8.95;5.30;;;24.50;72.10;;;;;;5123069;27;20377;-80
2023/07/24 07:47:29;;;;;;;9.50;5.53;;;24.20;72.80;;;;;;5131097;27;20027;-80
2023/07/24 07:49:54;;;;;;;9.45;5.32;;;23.60;73.80;;;;;;5135630;27;20112;-80
2023/07/24 07:52:21;;;;;;;8.93;5.43;;;23.10;75.10;;;;;;5136587;28;20061;-81
2023/07/24 07:54:48;;;;;;;10.52;5.82;;;22.90;76.00;;;;;;5134859;27;20023;-80
2023/07/24 07:57:14;;;;;;;8.82;5.22;;;22.60;77.20;;;;;;5127593;28;20361;-80
2023/07/24 07:59:40;;;;;;;8.50;5.05;;;22.50;77.40;;;;;;5119210;28;20035;-80
2023/07/24 08:02:06;;;;;;;9.45;5.70;;;22.60;77.70;;;;;;5115187;28;20137;-81
2023/07/24 08:04:32;;;;;;;7.90;5.10;;;22.70;77.20;;;;;;5116220;28;20024;-80
2023/07/24 08:06:57;;;;;;;9.90;5.80;;;23.00;76.80;;;;;;5115371;28;20034;-80
2023/07/24 08:09:24;;;;;;;9.07;5.57;;;23.10;76.80;;;;;;5130130;27;20107;-80
2023/07/24 08:11:50;;;;;;;8.35;4.80;;;23.20;76.30;;;;;;5119480;27;20038;-79
2023/07/24 08:14:16;;;;;;;8.55;5.20;;;23.20;76.10;;;;;;5140915;27;20015;-80
2023/07/24 08:16:41;;;;;;;11.05;5.32;;;23.30;76.30;;;;;;5119163;27;20122;-80
2023/07/24 08:19:07;;;;;;;9.15;5.38;;;23.20;76.60;;;;;;5135749;27;20043;-80
2023/07/24 08:21:32;;;;;;;9.13;5.47;;;23.00;76.70;;;;;;5118981;28;20077;-80
2023/07/24 08:23:59;;;;;;;8.93;5.10;;;22.70;77.90;;;;;;5133656;27;20483;-80
2023/07/24 08:26:26;;;;;;;10.50;5.72;;;22.50;78.50;;;;;;5137427;27;20101;-80
2023/07/24 08:28:52;;;;;;;9.45;5.50;;;22.40;79.50;;;;;;5125486;27;20050;-80
2023/07/24 08:31:17;;;;;;;10.25;6.07;;;22.50;79.60;;;;;;5139812;27;20019;-80
2023/07/24 08:33:43;;;;;;;10.15;6.03;;;22.70;79.60;;;;;;5117283;27;20487;-80
2023/07/24 08:36:11;;;;;;;9.80;6.20;;;22.90;79.40;;;;;;5120877;27;20424;-80
2023/07/24 08:38:37;;;;;;;10.55;6.25;;;22.90;79.40;;;;;;5131028;27;20037;-80
2023/07/24 08:41:10;;;;;;;11.52;6.55;;;22.70;79.90;;;;;;5140090;27;20019;-80
2023/07/24 08:43:37;;;;;;;9.95;6.28;;;22.80;80.50;;;;;;5139263;27;20111;-80
2023/07/24 08:46:04;;;;;;;9.98;6.10;;;22.60;80.50;;;;;;5137348;27;20054;-80
2023/07/24 08:48:38;;;;;;;10.40;6.32;;;22.60;80.30;;;;;;5123661;27;20099;-80
2023/07/24 08:51:05;;;;;;;11.57;6.47;;;22.70;81.60;;;;;;5133211;27;20360;-74
2023/07/24 08:53:36;;;;;;;10.57;5.90;;;22.60;83.70;;;;;;5139044;27;20339;-80
2023/07/24 08:56:03;;;;;;;10.40;5.78;;;22.20;83.50;;;;;;5124882;27;20148;-80
2023/07/24 08:58:29;;;;;;;10.60;6.22;;;22.00;84.20;;;;;;5132675;27;20343;-80
2023/07/24 09:00:57;;;;;;;10.48;6.47;;;22.10;84.50;;;;;;5135728;27;20035;-80
2023/07/24 09:03:22;;;;;;;9.70;6.30;;;22.00;84.50;;;;;;5133693;27;20023;-81
2023/07/24 09:05:48;;;;;;;9.85;6.22;;;22.20;84.50;;;;;;5138650;27;20031;-81
2023/07/24 09:08:14;;;;;;;10.73;6.30;;;22.50;84.40;;;;;;5140482;27;20023;-81
2023/07/24 09:10:39;;;;;;;10.15;5.55;;;22.60;81.30;;;;;;5139826;27;20042;-81
2023/07/24 09:13:05;;;;;;;11.70;6.30;;;22.80;82.00;;;;;;5119013;27;21040;-81
2023/07/24 09:15:43;;;;;;;11.95;6.18;;;23.00;83.50;;;;;;5110105;28;20032;-81
2023/07/24 09:18:09;;;;;;;10.15;6.03;;;22.90;81.30;;;;;;5122991;27;20046;-80
2023/07/24 09:20:40;;;;;;;10.20;5.85;;;22.60;80.80;;;;;;5137510;27;20030;-81
2023/07/24 09:23:06;;;;;;;11.55;5.82;;;22.40;81.80;;;;;;5138680;27;20011;-81
2023/07/24 09:25:33;;;;;;;10.18;5.63;;;22.60;81.70;;;;;;5139118;27;20375;-81
2023/07/24 09:27:59;;;;;;;9.57;5.95;;;22.90;80.70;;;;;;5116318;27;20122;-80
2023/07/24 09:30:25;;;;;;;8.70;5.25;;;23.00;80.50;;;;;;5120070;27;20099;-80
2023/07/24 09:32:54;;;;;;;10.25;6.13;;;23.00;79.60;;;;;;5137600;27;20471;-80
2023/07/24 09:35:20;;;;;;;9.73;6.00;;;23.10;79.90;;;;;;5138178;27;20027;-81
2023/07/24 09:37:46;;;;;;;8.93;5.40;;;23.30;80.10;;;;;;5139293;27;20366;-81
2023/07/24 09:40:15;;;;;;;9.98;5.75;;;23.20;78.20;;;;;;5139287;27;20349;-80
2023/07/24 09:42:40;;;;;;;10.02;5.35;;;23.10;78.80;;;;;;5118883;27;20360;-80
2023/07/24 09:45:10;;;;;;;9.38;5.55;;;22.90;78.20;;;;;;5135549;27;20038;-80
2023/07/24 09:47:40;;;;;;;9.80;5.78;;;22.80;79.60;;;;;;5138465;27;20034;-79
2023/07/24 09:50:06;;;;;;;9.15;5.90;;;22.80;79.80;;;;;;5137698;27;20054;-79
2023/07/24 09:52:34;;;;;;;9.32;5.32;;;22.70;80.10;;;;;;5120909;27;20320;-79
2023/07/24 09:55:15;;;;;;;8.95;5.53;;;22.20;81.80;;;;;;5132982;27;20105;-80
2023/07/24 09:57:43;;;;;;;8.60;5.68;;;21.60;85.40;;;;;;5131828;27;20435;-82
2023/07/24 10:00:11;;;;;;;10.18;5.72;;;21.20;88.20;;;;;;5119649;27;20027;-81
2023/07/24 10:02:37;;;;;;;12.30;6.03;;;20.80;88.70;;;;;;5137025;27;20312;-81
2023/07/24 10:05:06;;;;;;;9.77;6.03;;;20.50;88.90;;;;;;5114314;27;20027;-81
2023/07/24 10:07:32;;;;;;;9.00;5.63;;;20.30;90.30;;;;;;5127512;27;20431;-81
2023/07/24 10:09:58;;;;;;;10.05;6.28;;;20.10;90.90;;;;;;5137224;27;20079;-83
2023/07/24 10:12:27;;;;;;;9.55;5.72;;;20.00;92.30;;;;;;5110165;27;20446;-81
2023/07/24 10:14:55;;;;;;;12.35;6.55;;;19.60;94.20;;;;;;5118970;27;20053;-81
2023/07/24 10:17:37;;;;;;;11.30;6.35;;;19.00;95.40;;;;;;5128094;27;20054;-81
2023/07/24 10:20:08;;;;;;;11.23;6.90;;;18.60;95.40;;;;;;5112726;27;20089;-81
2023/07/24 10:22:34;;;;;;;14.45;7.93;;;18.30;95.30;;;;;;5120419;27;20030;-81
2023/07/24 10:25:00;;;;;;;12.15;6.65;;;18.10;93.40;;;;;;5120026;27;20428;-80
2023/07/24 10:27:28;;;;;;;12.65;7.57;;;17.90;92.80;;;;;;5129852;27;20030;-80
2023/07/24 10:30:00;;;;;;;12.45;7.28;;;17.80;93.00;;;;;;5137490;27;20342;-78
2023/07/24 10:32:25;;;;;;;14.88;7.93;;;17.60;91.90;;;;;;5134367;27;20111;-77
2023/07/24 10:35:10;;;;;;;14.43;7.55;;;17.40;93.40;;;;;;5127620;27;20373;-78
2023/07/24 10:37:37;;;;;;;12.95;7.38;;;17.20;90.80;;;;;;5116533;28;20035;-78
2023/07/24 10:40:04;;;;;;;14.82;8.10;;;17.00;89.20;;;;;;5117603;28;20015;-80
2023/07/24 10:42:30;;;;;;;12.65;7.28;;;16.90;87.40;;;;;;5135447;27;20115;-82
2023/07/24 10:45:06;;;;;;;13.82;8.27;;;16.90;88.40;;;;;;5137840;27;20019;-83
2023/07/24 10:47:32;;;;;;;11.68;7.47;;;16.90;88.00;;;;;;5137186;27;20023;-81
2023/07/24 10:49:58;;;;;;;12.18;8.07;;;16.90;86.60;;;;;;5135943;27;20043;-81
2023/07/24 10:52:32;;;;;;;11.55;6.95;;;17.00;87.50;;;;;;5119727;27;20034;-81
2023/07/24 10:55:01;;;;;;;94.57;49.08;;;17.00;85.90;;;;;;5116253;28;20055;-81
2023/07/24 10:57:27;;;;;;;35.45;18.13;;;17.00;86.30;;;;;;5117398;28;20338;-80
2023/07/24 10:59:53;;;;;;;29.40;14.25;;;17.00;88.00;;;;;;5137579;27;20075;-80
2023/07/24 11:02:19;;;;;;;60.67;33.08;;;17.00;88.20;;;;;;5125934;27;20027;-81
2023/07/24 11:04:45;;;;;;;33.58;17.80;;;17.00;86.90;;;;;;5129374;27;20023;-82
2023/07/24 11:07:11;;;;;;;27.33;14.60;;;17.00;89.20;;;;;;5120770;27;20106;-82
2023/07/24 11:09:39;;;;;;;13.25;8.75;;;17.00;87.70;;;;;;5123132;27;20458;-82
2023/07/24 11:12:15;;;;;;;16.48;9.32;;;17.00;87.40;;;;;;5116863;28;20024;-81
2023/07/24 11:14:55;;;;;;;12.88;7.85;;;17.00;85.20;;;;;;5125912;27;20023;-82
2023/07/24 11:17:21;;;;;;;13.38;7.85;;;17.10;87.60;;;;;;5118048;27;20027;-83
2023/07/24 11:19:46;;;;;;;12.13;7.47;;;17.20;87.30;;;;;;5132930;27;20023;-83
2023/07/24 11:22:12;;;;;;;11.63;7.35;;;17.30;86.80;;;;;;5136648;27;20022;-83
2023/07/24 11:24:46;;;;;;;10.50;6.60;;;17.80;82.20;;;;;;5116671;28;20362;-82
2023/07/24 11:27:17;;;;;;;11.52;6.40;;;18.40;90.90;;;;;;5120642;27;20067;-83
2023/07/24 11:29:51;;;;;;;11.27;6.68;;;18.80;91.10;;;;;;5131867;27;20035;-82
2023/07/24 11:32:21;;;;;;;11.25;6.97;;;19.20;89.90;;;;;;5131659;27;20034;-83
2023/07/24 11:34:51;;;;;;;10.60;6.70;;;19.50;91.40;;;;;;5127041;27;20035;-82
2023/07/24 11:37:18;;;;;;;11.05;6.72;;;19.80;91.50;;;;;;5137055;27;20099;-83
2023/07/24 11:39:56;;;;;;;10.55;6.13;;;20.10;95.60;;;;;;5123695;27;20082;-83
2023/07/24 11:42:23;;;;;;;8.40;5.30;;;20.20;93.60;;;;;;5135760;27;20094;-83
2023/07/24 11:44:49;;;;;;;9.15;5.78;;;20.30;98.00;;;;;;5136215;27;20023;-83
2023/07/24 11:47:15;;;;;;;8.80;5.15;;;20.10;96.00;;;;;;5134647;27;20019;-83
2023/07/24 11:49:47;;;;;;;8.60;5.00;;;20.10;96.50;;;;;;5126832;27;20347;-83
2023/07/24 11:52:12;;;;;;;8.75;5.13;;;20.40;96.00;;;;;;5128797;27;20011;-83
2023/07/24 11:54:38;;;;;;;8.02;4.57;;;20.80;93.80;;;;;;5131972;27;20461;-84
2023/07/24 11:57:15;;;;;;;7.80;4.72;;;21.80;93.90;;;;;;5116394;28;20164;-84
2023/07/24 11:59:41;;;;;;;8.60;5.10;;;22.80;91.20;;;;;;5127425;28;20047;-85
2023/07/24 12:02:10;;;;;;;8.75;4.65;;;23.00;90.30;;;;;;5125431;28;20031;-85
2023/07/24 12:04:36;;;;;;;8.98;4.88;;;22.80;88.20;;;;;;5116476;28;20020;-85
2023/07/24 12:07:07;;;;;;;7.82;4.60;;;23.00;89.90;;;;;;5122550;28;20057;-85
2023/07/24 12:09:32;;;;;;;8.55;4.38;;;23.30;88.20;;;;;;5135906;27;20160;-85
2023/07/24 12:11:58;;;;;;;7.55;4.72;;;23.30;88.90;;;;;;5121433;28;20404;-85
2023/07/24 12:14:25;;;;;;;7.80;4.63;;;23.50;86.50;;;;;;5105417;28;20357;-84
2023/07/24 12:17:00;;;;;;;7.00;4.20;;;23.90;84.10;;;;;;5135748;28;20430;-84
2023/07/24 12:19:26;;;;;;;6.68;4.25;;;24.10;84.40;;;;;;5131859;28;20035;-84
2023/07/24 12:21:52;;;;;;;8.25;4.72;;;24.50;82.30;;;;;;5133971;28;20040;-83
2023/07/24 12:24:17;;;;;;;7.32;4.00;;;24.00;81.20;;;;;;5135755;27;20027;-83
2023/07/24 12:26:43;;;;;;;9.02;4.30;;;23.80;81.80;;;;;;5129182;27;20319;-83
2023/07/24 12:29:08;;;;;;;7.20;4.10;;;23.60;82.90;;;;;;5129883;28;20399;-83
2023/07/24 12:31:34;;;;;;;8.38;3.90;;;23.60;80.00;;;;;;5132766;28;20106;-82
2023/07/24 12:33:59;;;;;;;7.20;4.25;;;23.50;81.70;;;;;;5130564;28;20046;-83
2023/07/24 12:36:25;;;;;;;7.38;4.13;;;23.60;81.10;;;;;;5133957;28;20023;-83